UAE9435 OMDW-OEDF
Flight info
| Callsign | UAE9435 |
|---|---|
| Flight time | N/A |
| Altitude | 26000 |
| Route | NABIX3L NABIX P699 ORMID M556 NARMI NARMI1J |
| Aircraft | B77W/H-SDE1E2E3FGHIJ2J3J4J5M1RWXY/LB1D1 |
Departure
| Time | 2026-04-26 11:35 |
|---|---|
| Airport | Al Maktoum International Airport (OMDW) |
Arrival
| Time | N/A |
|---|---|
| Airport | King Fahd International Airport (OEDF) |
| Time | Latitude | Longitude | Altitude | Speed | Heading |
|---|---|---|---|---|---|
| 2026-04-26 11:13 | 24.88825 | 55.16229 | 147 ft | 0 kts | 210° |
| 2026-04-26 11:26 | 24.88828 | 55.16231 | 147 ft | 2 kts | 210° |
| 2026-04-26 11:26 | 24.88845 | 55.16241 | 147 ft | 3 kts | 210° |
| 2026-04-26 11:26 | 24.88862 | 55.16252 | 147 ft | 3 kts | 213° |
| 2026-04-26 11:27 | 24.88879 | 55.16264 | 147 ft | 3 kts | 212° |
| 2026-04-26 11:27 | 24.88891 | 55.16272 | 147 ft | 3 kts | 200° |
| 2026-04-26 11:27 | 24.88905 | 55.16276 | 147 ft | 3 kts | 144° |
| 2026-04-26 11:27 | 24.88911 | 55.16269 | 147 ft | 2 kts | 121° |
| 2026-04-26 11:28 | 24.88921 | 55.16251 | 146 ft | 3 kts | 121° |
| 2026-04-26 11:28 | 24.88928 | 55.16238 | 146 ft | 1 kts | 121° |
| 2026-04-26 11:28 | 24.88929 | 55.16238 | 146 ft | 0 kts | 121° |
| 2026-04-26 11:30 | 24.88928 | 55.16239 | 146 ft | 1 kts | 121° |
| 2026-04-26 11:31 | 24.88910 | 55.16272 | 147 ft | 9 kts | 122° |
| 2026-04-26 11:31 | 24.88863 | 55.16357 | 148 ft | 17 kts | 121° |
| 2026-04-26 11:31 | 24.88795 | 55.16491 | 150 ft | 22 kts | 107° |
| 2026-04-26 11:31 | 24.88821 | 55.16635 | 151 ft | 14 kts | 58° |
| 2026-04-26 11:32 | 24.88843 | 55.16667 | 151 ft | 3 kts | 46° |
| 2026-04-26 11:32 | 24.88903 | 55.16716 | 151 ft | 13 kts | 35° |
| 2026-04-26 11:32 | 24.88976 | 55.16768 | 151 ft | 13 kts | 32° |
| 2026-04-26 11:32 | 24.89017 | 55.16838 | 151 ft | 13 kts | 92° |
| 2026-04-26 11:33 | 24.88975 | 55.16940 | 152 ft | 16 kts | 120° |
| 2026-04-26 11:33 | 24.88913 | 55.17054 | 154 ft | 19 kts | 121° |
| 2026-04-26 11:33 | 24.88837 | 55.17193 | 156 ft | 23 kts | 121° |
| 2026-04-26 11:33 | 24.88748 | 55.17354 | 158 ft | 22 kts | 121° |
| 2026-04-26 11:34 | 24.88662 | 55.17509 | 160 ft | 26 kts | 121° |
| 2026-04-26 11:34 | 24.88583 | 55.17654 | 162 ft | 20 kts | 119° |
| 2026-04-26 11:34 | 24.88600 | 55.17753 | 162 ft | 9 kts | 36° |
| 2026-04-26 11:34 | 24.88669 | 55.17769 | 162 ft | 10 kts | 5° |
| 2026-04-26 11:35 | 24.88758 | 55.17721 | 161 ft | 33 kts | 311° |
| 2026-04-26 11:35 | 24.89107 | 55.17100 | 155 ft | 157 kts | 299° |
| 2026-04-26 11:35 | 24.89760 | 55.15816 | 798 ft | 210 kts | 300° |
| 2026-04-26 11:35 | 24.90467 | 55.14293 | 2123 ft | 230 kts | 299° |
| 2026-04-26 11:36 | 24.91293 | 55.12745 | 3687 ft | 236 kts | 305° |